| time (UTC) | temp C | wind direction | speed KPH | gust KPH | rain 1hr cm | rain 24hr cm | rain mn cm | humidity % | barometer mb |
| 20260504034551 | 11 | 360 | 3.2 | 4.8 | 0.00 | 0.00 | 0.00 | 54 | 1004.8 |
| 20260504033047 | 11 | 360 | 3.2 | 6.4 | 0.00 | 0.00 | 0.00 | 55 | 1005.0 |
| 20260504031604 | 12 | 360 | 1.6 | 8.0 | 0.00 | 0.00 | 0.00 | 52 | 1005.1 |
| 20260504030045 | 12 | 360 | 3.2 | 6.4 | 0.00 | 0.00 | 0.00 | 53 | 1005.1 |
| 20260504024545 | 12 | 360 | 6.4 | 9.7 | 0.00 | 0.00 | 0.00 | 53 | 1005.1 |
| 20260504023044 | 12 | 360 | 6.4 | 8.0 | 0.00 | 0.00 | 0.00 | 52 | 1005.1 |
| 20260504021544 | 12 | 263 | 6.4 | 8.0 | 0.00 | 0.00 | 0.00 | 51 | 1005.0 |
| 20260504020043 | 13 | 360 | 6.4 | 9.7 | 0.00 | 0.00 | 0.00 | 48 | 1004.8 |
| 20260504014543 | 13 | 360 | 6.4 | 9.7 | 0.00 | 0.00 | 0.00 | 48 | 1004.8 |
| 20260504013040 | 15 | 360 | 8.0 | 12.9 | 0.00 | 0.00 | 0.00 | 46 | 1004.9 |
| 20260504011546 | 16 | 273 | 8.0 | 12.9 | 0.00 | 0.00 | 0.00 | 43 | 1004.8 |
| 20260504010043 | 17 | 360 | 8.0 | 9.7 | 0.00 | 0.00 | 0.00 | 39 | 1004.8 |
| 20260504004538 | 18 | 360 | 11.3 | 19.3 | 0.00 | 0.00 | 0.00 | 36 | 1004.7 |
| 20260504003043 | 20 | 360 | 17.7 | 24.1 | 0.00 | 0.00 | 0.00 | 34 | 1004.6 |
| 20260504001545 | 20 | 360 | 17.7 | 27.4 | 0.00 | 0.00 | 0.00 | 33 | 1004.8 |
| 20260504000037 | 20 | 360 | 20.9 | 32.2 | 0.00 | 0.00 | 0.00 | 32 | 1004.8 |
| 20260503234535 | 21 | 360 | 20.9 | 33.8 | 0.00 | 0.00 | 0.00 | 31 | 1004.6 |
| 20260503233034 | 21 | 360 | 24.1 | 35.4 | 0.00 | 0.00 | 0.00 | 30 | 1004.6 |
| 20260503231545 | 21 | 360 | 27.4 | 35.4 | 0.00 | 0.00 | 0.00 | 29 | 1004.6 |
| 20260503230031 | 21 | 360 | 24.1 | 30.6 | 0.00 | 0.00 | 0.00 | 30 | 1004.5 |
| 20260503224531 | 22 | 360 | 24.1 | 37.0 | 0.00 | 0.00 | 0.00 | 30 | 1004.5 |
| 20260503223128 | 22 | 360 | 22.5 | 35.4 | 0.00 | 0.00 | 0.00 | 30 | 1004.5 |
| 20260503221528 | 22 | 360 | 29.0 | 43.5 | 0.00 | 0.00 | 0.00 | 29 | 1004.4 |
| 20260503220035 | 22 | 360 | 17.7 | 32.2 | 0.00 | 0.00 | 0.00 | 31 | 1004.5 |
| 20260503214525 | 22 | 360 | 20.9 | 38.6 | 0.00 | 0.00 | 0.00 | 31 | 1004.6 |
| 20260503213037 | 22 | 360 | 25.7 | 37.0 | 0.00 | 0.00 | 0.00 | 31 | 1004.5 |
| 20260503211525 | 22 | 360 | 20.9 | 37.0 | 0.00 | 0.00 | 0.00 | 30 | 1004.6 |
| 20260503210024 | 22 | 360 | 27.4 | 45.1 | 0.00 | 0.00 | 0.00 | 30 | 1004.6 |
| 20260503204526 | 22 | 360 | 22.5 | 38.6 | 0.00 | 0.00 | 0.00 | 29 | 1004.7 |
| 20260503203024 | 22 | 360 | 25.7 | 40.2 | 0.00 | 0.00 | 0.00 | 30 | 1004.8 |
| 20260503201524 | 22 | 288 | 27.4 | 38.6 | 0.00 | 0.00 | 0.00 | 33 | 1004.7 |
| 20260503200020 | 22 | 360 | 25.7 | 45.1 | 0.00 | 0.00 | 0.00 | 30 | 1004.9 |
| 20260503194522 | 22 | 360 | 24.1 | 38.6 | 0.00 | 0.00 | 0.00 | 33 | 1004.8 |
| 20260503193018 | 22 | 360 | 22.5 | 38.6 | 0.00 | 0.00 | 0.00 | 33 | 1005.0 |
| 20260503191515 | 22 | 360 | 22.5 | 41.8 | 0.00 | 0.00 | 0.00 | 35 | 1004.9 |
| 20260503190013 | 21 | 360 | 29.0 | 45.1 | 0.00 | 0.00 | 0.00 | 37 | 1005.1 |
| 20260503184511 | 21 | 360 | 25.7 | 37.0 | 0.00 | 0.00 | 0.00 | 37 | 1005.0 |
| 20260503183009 | 22 | 360 | 19.3 | 38.6 | 0.00 | 0.00 | 0.00 | 38 | 1005.1 |
| 20260503181507 | 21 | 360 | 25.7 | 41.8 | 0.00 | 0.00 | 0.00 | 41 | 1005.2 |
| 20260503180018 | 21 | 346 | 27.4 | 43.5 | 0.00 | 0.00 | 0.00 | 41 | 1005.4 |
| 20260503174515 | 21 | 360 | 29.0 | 48.3 | 0.00 | 0.00 | 0.00 | 43 | 1005.5 |
| 20260503173004 | 21 | 360 | 24.1 | 40.2 | 0.00 | 0.00 | 0.00 | 44 | 1005.3 |
| 20260503171503 | 20 | 284 | 27.4 | 37.0 | 0.00 | 0.00 | 0.00 | 44 | 1005.4 |
| 20260503090106 | 10 | 360 | 32.2 | 40.2 | 0.00 | 0.00 | 0.00 | 67 | 1010.0 |
| 20260503081557 | 11 | 360 | 30.6 | 38.6 | 0.00 | 0.00 | 0.00 | 61 | 1010.4 |
| 20260503071603 | 11 | 360 | 24.1 | 35.4 | 0.00 | 0.00 | 0.00 | 55 | 1010.7 |
| 20260503054535 | 10 | 360 | 17.7 | 25.7 | 0.00 | 0.00 | 0.00 | 57 | 1011.5 |
| 20260503053029 | 10 | 360 | 16.1 | 24.1 | 0.00 | 0.00 | 0.00 | 57 | 1011.7 |
| 20260503051536 | 10 | 215 | 16.1 | 22.5 | 0.00 | 0.00 | 0.00 | 56 | 1011.8 |
| 20260503050024 | 10 | 360 | 19.3 | 24.1 | 0.00 | 0.00 | 0.00 | 56 | 1012.0 |
| 20260503044523 | 10 | 217 | 14.5 | 19.3 | 0.00 | 0.00 | 0.00 | 57 | 1011.9 |
| 20260503043024 | 10 | 360 | 14.5 | 19.3 | 0.00 | 0.00 | 0.00 | 57 | 1012.0 |
| 20260503041527 | 10 | 360 | 16.1 | 22.5 | 0.00 | 0.00 | 0.00 | 55 | 1012.2 |
| 20260503040018 | 10 | 211 | 12.9 | 16.1 | 0.00 | 0.00 | 0.00 | 55 | 1012.4 |